Terminal Aerodrome Forecast
Issued by NWS

Home | Current Version | Previous Version | Text Only | Print | Product List | Glossary On
Versions: 1 2 3 4 5 6 7 8 9 10 11 12 13 14 15 16 17 18 19 20 21
000
FTUS42 KMLB 021515 AAB
TAFLEE
TAF AMD
KLEE 021515Z 0215/0312 01003KT 2SM BR OVC002
     FM021600 04006KT P6SM BKN015
      TEMPO 0216/0217 6SM BR HZ BKN008
     FM021800 06005KT P6SM SCT025
     FM030000 VRB03KT P6SM SCT040 BKN250
     FM030500 00000KT 5SM BR SCT003
      TEMPO 0308/0312 1SM BR BKN002=

USA.gov is the U.S. government's official web portal to all federal, state and local government web resources and services.